sensor_id;sensor_type;location;lat;lon;timestamp;temperature;humidity
25654;DHT22;13511;48.622;9.230;2024-01-11T00:01:26;18.80;21.90
25654;DHT22;13511;48.622;9.230;2024-01-11T00:03:52;18.80;21.90
25654;DHT22;13511;48.622;9.230;2024-01-11T00:06:17;18.70;21.80
25654;DHT22;13511;48.622;9.230;2024-01-11T00:08:43;18.80;21.90
25654;DHT22;13511;48.622;9.230;2024-01-11T00:11:08;18.70;21.90
25654;DHT22;13511;48.622;9.230;2024-01-11T00:13:34;18.70;21.90
25654;DHT22;13511;48.622;9.230;2024-01-11T00:16:00;18.70;21.90
25654;DHT22;13511;48.622;9.230;2024-01-11T00:18:25;18.70;21.90
25654;DHT22;13511;48.622;9.230;2024-01-11T00:20:51;18.70;21.90
25654;DHT22;13511;48.622;9.230;2024-01-11T00:23:17;18.70;21.90
25654;DHT22;13511;48.622;9.230;2024-01-11T00:25:43;18.70;21.90
25654;DHT22;13511;48.622;9.230;2024-01-11T00:28:08;18.70;21.90
25654;DHT22;13511;48.622;9.230;2024-01-11T00:30:34;18.70;21.90
25654;DHT22;13511;48.622;9.230;2024-01-11T00:32:59;18.70;21.90
25654;DHT22;13511;48.622;9.230;2024-01-11T00:35:25;18.70;21.80
25654;DHT22;13511;48.622;9.230;2024-01-11T00:37:50;18.70;21.90
25654;DHT22;13511;48.622;9.230;2024-01-11T00:40:16;18.70;21.80
25654;DHT22;13511;48.622;9.230;2024-01-11T00:42:42;18.70;21.90
25654;DHT22;13511;48.622;9.230;2024-01-11T00:45:07;18.70;21.90
25654;DHT22;13511;48.622;9.230;2024-01-11T00:47:33;18.70;21.90
25654;DHT22;13511;48.622;9.230;2024-01-11T00:49:59;18.70;21.90
25654;DHT22;13511;48.622;9.230;2024-01-11T00:52:24;18.70;21.80
25654;DHT22;13511;48.622;9.230;2024-01-11T00:54:50;18.70;21.80
25654;DHT22;13511;48.622;9.230;2024-01-11T00:57:15;18.70;21.80
25654;DHT22;13511;48.622;9.230;2024-01-11T00:59:41;18.70;21.80
25654;DHT22;13511;48.622;9.230;2024-01-11T01:02:06;18.70;21.70
25654;DHT22;13511;48.622;9.230;2024-01-11T01:04:32;18.70;21.80
25654;DHT22;13511;48.622;9.230;2024-01-11T01:06:58;18.70;21.80
25654;DHT22;13511;48.622;9.230;2024-01-11T01:09:23;18.70;21.80
25654;DHT22;13511;48.622;9.230;2024-01-11T01:11:49;18.60;21.80
25654;DHT22;13511;48.622;9.230;2024-01-11T01:14:14;18.60;21.80
25654;DHT22;13511;48.622;9.230;2024-01-11T01:16:40;18.60;21.80
25654;DHT22;13511;48.622;9.230;2024-01-11T01:19:06;18.70;21.80
25654;DHT22;13511;48.622;9.230;2024-01-11T01:21:31;18.70;21.90
25654;DHT22;13511;48.622;9.230;2024-01-11T01:23:57;18.60;21.80
25654;DHT22;13511;48.622;9.230;2024-01-11T01:26:22;18.70;21.90
25654;DHT22;13511;48.622;9.230;2024-01-11T01:28:48;18.70;21.80
25654;DHT22;13511;48.622;9.230;2024-01-11T01:31:14;18.70;21.70
25654;DHT22;13511;48.622;9.230;2024-01-11T01:33:40;18.80;21.70
25654;DHT22;13511;48.622;9.230;2024-01-11T01:36:09;18.70;21.70
25654;DHT22;13511;48.622;9.230;2024-01-11T01:38:35;18.70;21.70
25654;DHT22;13511;48.622;9.230;2024-01-11T01:41:01;18.70;21.70
25654;DHT22;13511;48.622;9.230;2024-01-11T01:43:26;18.70;21.80
25654;DHT22;13511;48.622;9.230;2024-01-11T01:45:53;18.70;22.40
25654;DHT22;13511;48.622;9.230;2024-01-11T01:48:19;18.70;21.80
25654;DHT22;13511;48.622;9.230;2024-01-11T01:50:47;18.70;21.70
25654;DHT22;13511;48.622;9.230;2024-01-11T01:53:21;18.70;21.70
25654;DHT22;13511;48.622;9.230;2024-01-11T01:55:48;18.70;21.70
25654;DHT22;13511;48.622;9.230;2024-01-11T01:58:15;18.70;21.70
25654;DHT22;13511;48.622;9.230;2024-01-11T02:00:41;18.60;21.60
25654;DHT22;13511;48.622;9.230;2024-01-11T02:03:09;18.60;21.70
25654;DHT22;13511;48.622;9.230;2024-01-11T02:05:35;18.60;21.70
25654;DHT22;13511;48.622;9.230;2024-01-11T02:08:03;18.60;21.60
25654;DHT22;13511;48.622;9.230;2024-01-11T02:10:34;18.60;21.70
25654;DHT22;13511;48.622;9.230;2024-01-11T02:13:01;18.70;21.70
25654;DHT22;13511;48.622;9.230;2024-01-11T02:15:26;18.60;21.60
25654;DHT22;13511;48.622;9.230;2024-01-11T02:17:52;18.60;21.60
25654;DHT22;13511;48.622;9.230;2024-01-11T02:20:17;18.60;21.60
25654;DHT22;13511;48.622;9.230;2024-01-11T02:22:48;18.60;21.60
25654;DHT22;13511;48.622;9.230;2024-01-11T02:25:15;18.60;21.60
25654;DHT22;13511;48.622;9.230;2024-01-11T02:27:46;18.60;21.60
25654;DHT22;13511;48.622;9.230;2024-01-11T02:30:12;18.60;21.60
25654;DHT22;13511;48.622;9.230;2024-01-11T02:32:38;18.60;21.60
25654;DHT22;13511;48.622;9.230;2024-01-11T02:35:04;18.60;21.60
25654;DHT22;13511;48.622;9.230;2024-01-11T02:37:30;18.60;21.60
25654;DHT22;13511;48.622;9.230;2024-01-11T02:39:56;18.60;21.60
25654;DHT22;13511;48.622;9.230;2024-01-11T02:42:22;18.60;21.60
25654;DHT22;13511;48.622;9.230;2024-01-11T02:44:47;18.70;21.60
25654;DHT22;13511;48.622;9.230;2024-01-11T02:47:13;18.60;21.50
25654;DHT22;13511;48.622;9.230;2024-01-11T02:49:38;18.60;21.50
25654;DHT22;13511;48.622;9.230;2024-01-11T02:52:04;18.60;21.50
25654;DHT22;13511;48.622;9.230;2024-01-11T02:54:30;18.60;21.50
25654;DHT22;13511;48.622;9.230;2024-01-11T02:56:56;18.60;21.50
25654;DHT22;13511;48.622;9.230;2024-01-11T02:59:22;18.60;21.50
25654;DHT22;13511;48.622;9.230;2024-01-11T03:01:49;18.70;21.50
25654;DHT22;13511;48.622;9.230;2024-01-11T03:04:16;18.60;21.40
25654;DHT22;13511;48.622;9.230;2024-01-11T03:06:42;18.60;21.40
25654;DHT22;13511;48.622;9.230;2024-01-11T03:09:08;18.60;21.50
25654;DHT22;13511;48.622;9.230;2024-01-11T03:11:33;18.60;21.40
25654;DHT22;13511;48.622;9.230;2024-01-11T03:13:59;18.60;21.40
25654;DHT22;13511;48.622;9.230;2024-01-11T03:16:25;18.70;21.40
25654;DHT22;13511;48.622;9.230;2024-01-11T03:18:50;18.60;21.50
25654;DHT22;13511;48.622;9.230;2024-01-11T03:21:16;18.60;21.50
25654;DHT22;13511;48.622;9.230;2024-01-11T03:23:42;18.50;21.40
25654;DHT22;13511;48.622;9.230;2024-01-11T03:26:17;18.60;21.50
25654;DHT22;13511;48.622;9.230;2024-01-11T03:28:43;18.60;21.40
25654;DHT22;13511;48.622;9.230;2024-01-11T03:31:09;18.60;21.40
25654;DHT22;13511;48.622;9.230;2024-01-11T03:33:36;18.60;21.40
25654;DHT22;13511;48.622;9.230;2024-01-11T03:36:11;18.60;21.50
25654;DHT22;13511;48.622;9.230;2024-01-11T03:38:37;18.60;21.40
25654;DHT22;13511;48.622;9.230;2024-01-11T03:41:08;18.50;21.40
25654;DHT22;13511;48.622;9.230;2024-01-11T03:43:34;18.60;21.40
25654;DHT22;13511;48.622;9.230;2024-01-11T03:46:00;18.50;21.40
25654;DHT22;13511;48.622;9.230;2024-01-11T03:48:25;18.60;21.40
25654;DHT22;13511;48.622;9.230;2024-01-11T03:50:51;18.60;21.40
25654;DHT22;13511;48.622;9.230;2024-01-11T03:53:16;18.50;21.30
25654;DHT22;13511;48.622;9.230;2024-01-11T03:55:42;18.60;21.30
25654;DHT22;13511;48.622;9.230;2024-01-11T03:58:08;18.50;21.40
25654;DHT22;13511;48.622;9.230;2024-01-11T04:00:33;18.60;21.30
25654;DHT22;13511;48.622;9.230;2024-01-11T04:02:59;18.50;21.40
25654;DHT22;13511;48.622;9.230;2024-01-11T04:05:25;18.60;21.30
25654;DHT22;13511;48.622;9.230;2024-01-11T04:07:50;18.50;21.30
25654;DHT22;13511;48.622;9.230;2024-01-11T04:10:17;18.50;21.30
25654;DHT22;13511;48.622;9.230;2024-01-11T04:12:43;18.50;21.40
25654;DHT22;13511;48.622;9.230;2024-01-11T04:15:11;18.50;21.40
25654;DHT22;13511;48.622;9.230;2024-01-11T04:17:38;18.50;21.80
25654;DHT22;13511;48.622;9.230;2024-01-11T04:20:06;18.50;21.30
25654;DHT22;13511;48.622;9.230;2024-01-11T04:22:32;18.50;21.20
25654;DHT22;13511;48.622;9.230;2024-01-11T04:24:57;18.50;21.30
25654;DHT22;13511;48.622;9.230;2024-01-11T04:27:23;18.60;21.30
25654;DHT22;13511;48.622;9.230;2024-01-11T04:29:49;18.60;21.20
25654;DHT22;13511;48.622;9.230;2024-01-11T04:32:14;18.50;21.30
25654;DHT22;13511;48.622;9.230;2024-01-11T04:34:40;18.60;21.30
25654;DHT22;13511;48.622;9.230;2024-01-11T04:37:06;18.60;21.30
25654;DHT22;13511;48.622;9.230;2024-01-11T04:39:32;18.50;21.20
25654;DHT22;13511;48.622;9.230;2024-01-11T04:41:58;18.50;21.20
25654;DHT22;13511;48.622;9.230;2024-01-11T04:44:25;18.60;21.20
25654;DHT22;13511;48.622;9.230;2024-01-11T04:46:51;18.50;21.20
25654;DHT22;13511;48.622;9.230;2024-01-11T04:49:17;18.50;21.20
25654;DHT22;13511;48.622;9.230;2024-01-11T04:51:42;18.50;21.30
25654;DHT22;13511;48.622;9.230;2024-01-11T04:54:08;18.50;21.20
25654;DHT22;13511;48.622;9.230;2024-01-11T04:56:34;18.50;21.10
25654;DHT22;13511;48.622;9.230;2024-01-11T04:58:59;18.50;21.20
25654;DHT22;13511;48.622;9.230;2024-01-11T05:01:25;18.60;21.10
25654;DHT22;13511;48.622;9.230;2024-01-11T05:03:50;18.50;21.10
25654;DHT22;13511;48.622;9.230;2024-01-11T05:06:18;18.50;21.10
25654;DHT22;13511;48.622;9.230;2024-01-11T05:08:47;18.50;21.10
25654;DHT22;13511;48.622;9.230;2024-01-11T05:11:17;18.50;21.10
25654;DHT22;13511;48.622;9.230;2024-01-11T05:13:43;18.50;21.10
25654;DHT22;13511;48.622;9.230;2024-01-11T05:18:45;18.60;21.10
25654;DHT22;13511;48.622;9.230;2024-01-11T05:21:11;18.60;21.10
25654;DHT22;13511;48.622;9.230;2024-01-11T05:23:36;18.50;21.00
25654;DHT22;13511;48.622;9.230;2024-01-11T05:26:02;18.50;21.00
25654;DHT22;13511;48.622;9.230;2024-01-11T05:28:28;18.50;21.00
25654;DHT22;13511;48.622;9.230;2024-01-11T05:30:53;18.50;21.10
25654;DHT22;13511;48.622;9.230;2024-01-11T05:33:20;18.50;21.10
25654;DHT22;13511;48.622;9.230;2024-01-11T05:35:46;18.50;21.00
25654;DHT22;13511;48.622;9.230;2024-01-11T05:38:11;18.50;21.00
25654;DHT22;13511;48.622;9.230;2024-01-11T05:40:37;18.50;21.00
25654;DHT22;13511;48.622;9.230;2024-01-11T05:43:03;18.50;21.00
25654;DHT22;13511;48.622;9.230;2024-01-11T05:45:29;18.50;21.00
25654;DHT22;13511;48.622;9.230;2024-01-11T05:47:55;18.50;20.90
25654;DHT22;13511;48.622;9.230;2024-01-11T05:50:21;18.50;21.00
25654;DHT22;13511;48.622;9.230;2024-01-11T05:52:47;18.50;20.90
25654;DHT22;13511;48.622;9.230;2024-01-11T05:55:12;18.50;21.00
25654;DHT22;13511;48.622;9.230;2024-01-11T05:57:38;18.40;21.00
25654;DHT22;13511;48.622;9.230;2024-01-11T06:00:05;18.50;21.00
25654;DHT22;13511;48.622;9.230;2024-01-11T06:02:30;18.40;20.90
25654;DHT22;13511;48.622;9.230;2024-01-11T06:04:57;18.40;20.90
25654;DHT22;13511;48.622;9.230;2024-01-11T06:07:22;18.40;20.90
25654;DHT22;13511;48.622;9.230;2024-01-11T06:09:49;18.50;20.90
25654;DHT22;13511;48.622;9.230;2024-01-11T06:12:14;18.50;20.90
25654;DHT22;13511;48.622;9.230;2024-01-11T06:14:40;18.40;20.90
25654;DHT22;13511;48.622;9.230;2024-01-11T06:17:06;18.40;20.90
25654;DHT22;13511;48.622;9.230;2024-01-11T06:19:31;18.50;20.90
25654;DHT22;13511;48.622;9.230;2024-01-11T06:21:58;18.50;20.90
25654;DHT22;13511;48.622;9.230;2024-01-11T06:24:23;18.40;20.90
25654;DHT22;13511;48.622;9.230;2024-01-11T06:26:49;18.40;20.90
25654;DHT22;13511;48.622;9.230;2024-01-11T06:29:15;18.40;20.90
25654;DHT22;13511;48.622;9.230;2024-01-11T06:31:40;18.40;20.90
25654;DHT22;13511;48.622;9.230;2024-01-11T06:34:06;18.40;20.80
25654;DHT22;13511;48.622;9.230;2024-01-11T06:36:32;18.50;20.80
25654;DHT22;13511;48.622;9.230;2024-01-11T06:38:57;18.50;20.80
25654;DHT22;13511;48.622;9.230;2024-01-11T06:41:23;18.50;20.80
25654;DHT22;13511;48.622;9.230;2024-01-11T06:43:49;18.40;20.80
25654;DHT22;13511;48.622;9.230;2024-01-11T06:46:19;18.40;20.80
25654;DHT22;13511;48.622;9.230;2024-01-11T06:48:45;18.40;20.80
25654;DHT22;13511;48.622;9.230;2024-01-11T06:51:14;18.40;21.40
25654;DHT22;13511;48.622;9.230;2024-01-11T06:53:40;18.40;20.80
25654;DHT22;13511;48.622;9.230;2024-01-11T06:56:14;18.40;20.80
25654;DHT22;13511;48.622;9.230;2024-01-11T06:58:39;18.40;20.80
25654;DHT22;13511;48.622;9.230;2024-01-11T07:01:05;18.40;20.80
25654;DHT22;13511;48.622;9.230;2024-01-11T07:03:31;18.40;20.80
25654;DHT22;13511;48.622;9.230;2024-01-11T07:05:57;18.40;20.80
25654;DHT22;13511;48.622;9.230;2024-01-11T07:08:22;18.40;20.80
25654;DHT22;13511;48.622;9.230;2024-01-11T07:10:48;18.40;20.80
25654;DHT22;13511;48.622;9.230;2024-01-11T07:13:13;18.40;21.30
25654;DHT22;13511;48.622;9.230;2024-01-11T07:15:42;18.30;20.80
25654;DHT22;13511;48.622;9.230;2024-01-11T07:18:08;18.30;20.80
25654;DHT22;13511;48.622;9.230;2024-01-11T07:20:33;18.40;20.80
25654;DHT22;13511;48.622;9.230;2024-01-11T07:22:59;18.30;20.80
25654;DHT22;13511;48.622;9.230;2024-01-11T07:25:25;18.40;20.70
25654;DHT22;13511;48.622;9.230;2024-01-11T07:27:51;18.30;20.70
25654;DHT22;13511;48.622;9.230;2024-01-11T07:30:17;18.30;20.70
25654;DHT22;13511;48.622;9.230;2024-01-11T07:32:44;18.30;20.70
25654;DHT22;13511;48.622;9.230;2024-01-11T07:35:10;18.40;20.70
25654;DHT22;13511;48.622;9.230;2024-01-11T07:37:38;18.40;20.70
25654;DHT22;13511;48.622;9.230;2024-01-11T07:40:05;18.40;20.70
25654;DHT22;13511;48.622;9.230;2024-01-11T07:42:39;18.40;20.70
25654;DHT22;13511;48.622;9.230;2024-01-11T07:45:06;18.40;20.70
25654;DHT22;13511;48.622;9.230;2024-01-11T07:47:33;18.40;20.60
25654;DHT22;13511;48.622;9.230;2024-01-11T07:49:58;18.40;20.60
25654;DHT22;13511;48.622;9.230;2024-01-11T07:52:24;18.40;20.60
25654;DHT22;13511;48.622;9.230;2024-01-11T07:54:50;18.40;20.60
25654;DHT22;13511;48.622;9.230;2024-01-11T07:57:15;18.30;20.70
25654;DHT22;13511;48.622;9.230;2024-01-11T07:59:41;18.40;20.70
25654;DHT22;13511;48.622;9.230;2024-01-11T08:02:07;18.30;20.70
25654;DHT22;13511;48.622;9.230;2024-01-11T08:04:33;18.30;20.70
25654;DHT22;13511;48.622;9.230;2024-01-11T08:06:58;18.30;20.70
25654;DHT22;13511;48.622;9.230;2024-01-11T08:09:28;18.30;20.60
25654;DHT22;13511;48.622;9.230;2024-01-11T08:11:53;18.30;20.70
25654;DHT22;13511;48.622;9.230;2024-01-11T08:14:20;18.30;20.60
25654;DHT22;13511;48.622;9.230;2024-01-11T08:16:46;18.30;20.60
25654;DHT22;13511;48.622;9.230;2024-01-11T08:19:12;18.30;20.60
25654;DHT22;13511;48.622;9.230;2024-01-11T08:21:40;18.40;20.60
25654;DHT22;13511;48.622;9.230;2024-01-11T08:24:07;18.30;20.60
25654;DHT22;13511;48.622;9.230;2024-01-11T08:26:32;18.40;20.70
25654;DHT22;13511;48.622;9.230;2024-01-11T08:28:58;18.30;20.70
25654;DHT22;13511;48.622;9.230;2024-01-11T08:31:23;18.30;20.70
25654;DHT22;13511;48.622;9.230;2024-01-11T08:33:49;18.40;20.70
25654;DHT22;13511;48.622;9.230;2024-01-11T08:36:15;18.40;20.70
25654;DHT22;13511;48.622;9.230;2024-01-11T08:38:41;18.40;20.70
25654;DHT22;13511;48.622;9.230;2024-01-11T08:41:07;18.40;20.70
25654;DHT22;13511;48.622;9.230;2024-01-11T08:43:33;18.40;20.60
25654;DHT22;13511;48.622;9.230;2024-01-11T08:45:59;18.30;20.60
25654;DHT22;13511;48.622;9.230;2024-01-11T08:48:25;18.40;20.70
25654;DHT22;13511;48.622;9.230;2024-01-11T08:50:51;18.40;20.60
25654;DHT22;13511;48.622;9.230;2024-01-11T08:53:16;18.40;20.60
25654;DHT22;13511;48.622;9.230;2024-01-11T08:55:43;18.40;20.60
25654;DHT22;13511;48.622;9.230;2024-01-11T08:58:09;18.30;20.60
25654;DHT22;13511;48.622;9.230;2024-01-11T09:00:36;18.30;20.60
25654;DHT22;13511;48.622;9.230;2024-01-11T09:03:03;18.40;20.60
25654;DHT22;13511;48.622;9.230;2024-01-11T09:05:28;18.40;20.60
25654;DHT22;13511;48.622;9.230;2024-01-11T09:07:54;18.40;20.60
25654;DHT22;13511;48.622;9.230;2024-01-11T09:10:20;18.40;20.60
25654;DHT22;13511;48.622;9.230;2024-01-11T09:12:45;18.50;20.80
25654;DHT22;13511;48.622;9.230;2024-01-11T09:15:12;18.50;21.60
25654;DHT22;13511;48.622;9.230;2024-01-11T09:17:38;18.60;21.10
25654;DHT22;13511;48.622;9.230;2024-01-11T09:20:04;18.60;21.10
25654;DHT22;13511;48.622;9.230;2024-01-11T09:22:30;18.70;21.20
25654;DHT22;13511;48.622;9.230;2024-01-11T09:24:55;18.70;21.00
25654;DHT22;13511;48.622;9.230;2024-01-11T09:27:21;18.80;21.60
25654;DHT22;13511;48.622;9.230;2024-01-11T09:29:47;18.80;20.90
25654;DHT22;13511;48.622;9.230;2024-01-11T09:32:13;18.80;20.90
25654;DHT22;13511;48.622;9.230;2024-01-11T09:34:39;18.90;20.90
25654;DHT22;13511;48.622;9.230;2024-01-11T09:37:05;18.90;20.90
25654;DHT22;13511;48.622;9.230;2024-01-11T09:39:30;19.00;20.90
25654;DHT22;13511;48.622;9.230;2024-01-11T09:42:06;19.00;20.80
25654;DHT22;13511;48.622;9.230;2024-01-11T09:44:33;19.00;20.80
25654;DHT22;13511;48.622;9.230;2024-01-11T09:47:00;19.10;20.80
25654;DHT22;13511;48.622;9.230;2024-01-11T09:49:28;19.10;20.80
25654;DHT22;13511;48.622;9.230;2024-01-11T09:51:55;19.10;20.80
25654;DHT22;13511;48.622;9.230;2024-01-11T09:54:23;19.10;20.80
25654;DHT22;13511;48.622;9.230;2024-01-11T09:56:50;19.20;20.90
25654;DHT22;13511;48.622;9.230;2024-01-11T09:59:20;19.20;20.80
25654;DHT22;13511;48.622;9.230;2024-01-11T10:01:49;19.20;20.80
25654;DHT22;13511;48.622;9.230;2024-01-11T10:04:16;19.30;20.80
25654;DHT22;13511;48.622;9.230;2024-01-11T10:06:42;19.30;20.80
25654;DHT22;13511;48.622;9.230;2024-01-11T10:09:08;19.30;20.80
25654;DHT22;13511;48.622;9.230;2024-01-11T10:11:34;19.30;21.00
25654;DHT22;13511;48.622;9.230;2024-01-11T10:14:03;19.40;21.00
25654;DHT22;13511;48.622;9.230;2024-01-11T10:16:30;19.30;21.10
25654;DHT22;13511;48.622;9.230;2024-01-11T10:18:56;19.40;21.10
25654;DHT22;13511;48.622;9.230;2024-01-11T10:21:23;19.40;21.10
25654;DHT22;13511;48.622;9.230;2024-01-11T10:23:50;19.50;21.00
25654;DHT22;13511;48.622;9.230;2024-01-11T10:26:16;19.50;20.90
25654;DHT22;13511;48.622;9.230;2024-01-11T10:28:46;19.50;20.90
25654;DHT22;13511;48.622;9.230;2024-01-11T10:31:12;19.50;20.90
25654;DHT22;13511;48.622;9.230;2024-01-11T10:33:40;19.50;20.90
25654;DHT22;13511;48.622;9.230;2024-01-11T10:36:06;19.60;20.90
25654;DHT22;13511;48.622;9.230;2024-01-11T10:38:36;19.60;20.90
25654;DHT22;13511;48.622;9.230;2024-01-11T10:41:04;19.60;20.80
25654;DHT22;13511;48.622;9.230;2024-01-11T10:43:31;19.60;20.80
25654;DHT22;13511;48.622;9.230;2024-01-11T10:46:00;19.70;20.80
25654;DHT22;13511;48.622;9.230;2024-01-11T10:48:30;19.70;20.80
25654;DHT22;13511;48.622;9.230;2024-01-11T10:51:00;19.80;20.80
25654;DHT22;13511;48.622;9.230;2024-01-11T10:53:43;19.80;20.80
25654;DHT22;13511;48.622;9.230;2024-01-11T10:56:11;19.80;20.80
25654;DHT22;13511;48.622;9.230;2024-01-11T10:58:42;19.80;20.80
25654;DHT22;13511;48.622;9.230;2024-01-11T11:01:11;19.80;20.80
25654;DHT22;13511;48.622;9.230;2024-01-11T11:03:39;19.80;20.80
25654;DHT22;13511;48.622;9.230;2024-01-11T11:06:05;19.80;20.80
25654;DHT22;13511;48.622;9.230;2024-01-11T11:08:32;19.80;20.80
25654;DHT22;13511;48.622;9.230;2024-01-11T11:11:00;19.90;20.70
25654;DHT22;13511;48.622;9.230;2024-01-11T11:13:26;19.90;20.80
25654;DHT22;13511;48.622;9.230;2024-01-11T11:46:28;22.10;19.00
25654;DHT22;13511;48.622;9.230;2024-01-11T11:48:54;21.60;19.20
25654;DHT22;13511;48.622;9.230;2024-01-11T11:51:21;21.40;19.30
25654;DHT22;13511;48.622;9.230;2024-01-11T11:53:47;21.30;19.90
25654;DHT22;13511;48.622;9.230;2024-01-11T11:56:13;21.20;19.90
25654;DHT22;13511;48.622;9.230;2024-01-11T11:58:42;21.20;19.40
25654;DHT22;13511;48.622;9.230;2024-01-11T12:01:10;21.20;19.90
25654;DHT22;13511;48.622;9.230;2024-01-11T12:03:37;21.20;19.30
25654;DHT22;13511;48.622;9.230;2024-01-11T12:06:04;21.20;19.30
25654;DHT22;13511;48.622;9.230;2024-01-11T12:08:30;21.20;19.30
25654;DHT22;13511;48.622;9.230;2024-01-11T12:10:56;21.10;19.80
25654;DHT22;13511;48.622;9.230;2024-01-11T12:13:21;21.20;19.70
25654;DHT22;13511;48.622;9.230;2024-01-11T12:15:47;21.20;19.80
25654;DHT22;13511;48.622;9.230;2024-01-11T12:18:13;21.20;19.30
25654;DHT22;13511;48.622;9.230;2024-01-11T12:20:38;21.20;19.80
25654;DHT22;13511;48.622;9.230;2024-01-11T12:23:04;21.20;19.30
25654;DHT22;13511;48.622;9.230;2024-01-11T12:25:30;21.30;19.80
25654;DHT22;13511;48.622;9.230;2024-01-11T12:27:56;21.00;19.80
25654;DHT22;13511;48.622;9.230;2024-01-11T12:30:27;21.00;20.30
25654;DHT22;13511;48.622;9.230;2024-01-11T12:32:55;20.50;20.90
25654;DHT22;13511;48.622;9.230;2024-01-11T12:35:21;19.80;22.20
25654;DHT22;13511;48.622;9.230;2024-01-11T12:37:53;19.80;21.00
25654;DHT22;13511;48.622;9.230;2024-01-11T12:40:19;19.80;21.50
25654;DHT22;13511;48.622;9.230;2024-01-11T12:42:44;19.90;21.40
25654;DHT22;13511;48.622;9.230;2024-01-11T12:45:10;19.90;20.80
25654;DHT22;13511;48.622;9.230;2024-01-11T12:47:35;20.00;20.60
25654;DHT22;13511;48.622;9.230;2024-01-11T12:50:02;20.00;20.60
25654;DHT22;13511;48.622;9.230;2024-01-11T12:52:28;20.00;21.10
25654;DHT22;13511;48.622;9.230;2024-01-11T12:54:55;20.00;21.10
25654;DHT22;13511;48.622;9.230;2024-01-11T12:57:22;20.00;20.60
25654;DHT22;13511;48.622;9.230;2024-01-11T12:59:48;20.00;20.60
25654;DHT22;13511;48.622;9.230;2024-01-11T13:02:14;20.00;21.10
25654;DHT22;13511;48.622;9.230;2024-01-11T13:04:42;20.00;21.00
25654;DHT22;13511;48.622;9.230;2024-01-11T13:07:09;20.00;21.00
25654;DHT22;13511;48.622;9.230;2024-01-11T13:09:35;20.00;20.50
25654;DHT22;13511;48.622;9.230;2024-01-11T13:12:01;20.10;21.00
25654;DHT22;13511;48.622;9.230;2024-01-11T13:14:26;20.10;20.90
25654;DHT22;13511;48.622;9.230;2024-01-11T13:16:54;20.10;21.00
25654;DHT22;13511;48.622;9.230;2024-01-11T13:19:19;20.10;20.50
25654;DHT22;13511;48.622;9.230;2024-01-11T13:21:45;20.10;21.00
25654;DHT22;13511;48.622;9.230;2024-01-11T13:24:10;20.10;21.00
25654;DHT22;13511;48.622;9.230;2024-01-11T13:26:38;20.10;20.90
25654;DHT22;13511;48.622;9.230;2024-01-11T13:29:04;19.80;20.60
25654;DHT22;13511;48.622;9.230;2024-01-11T13:31:30;19.80;21.30
25654;DHT22;13511;48.622;9.230;2024-01-11T13:33:56;19.50;21.40
25654;DHT22;13511;48.622;9.230;2024-01-11T13:36:22;19.40;21.70
25654;DHT22;13511;48.622;9.230;2024-01-11T13:38:47;19.30;21.30
25654;DHT22;13511;48.622;9.230;2024-01-11T13:41:14;19.30;21.90
25654;DHT22;13511;48.622;9.230;2024-01-11T13:43:40;19.20;21.90
25654;DHT22;13511;48.622;9.230;2024-01-11T13:46:05;19.20;21.90
25654;DHT22;13511;48.622;9.230;2024-01-11T13:48:31;19.10;21.60
25654;DHT22;13511;48.622;9.230;2024-01-11T13:50:57;19.10;22.10
25654;DHT22;13511;48.622;9.230;2024-01-11T13:53:23;19.10;22.20
25654;DHT22;13511;48.622;9.230;2024-01-11T13:55:48;19.10;22.40
25654;DHT22;13511;48.622;9.230;2024-01-11T13:58:13;18.90;22.10
25654;DHT22;13511;48.622;9.230;2024-01-11T14:00:40;18.90;22.60
25654;DHT22;13511;48.622;9.230;2024-01-11T14:03:06;18.80;22.70
25654;DHT22;13511;48.622;9.230;2024-01-11T14:05:32;18.70;22.80
25654;DHT22;13511;48.622;9.230;2024-01-11T14:07:58;18.60;22.60
25654;DHT22;13511;48.622;9.230;2024-01-11T14:10:26;18.60;23.00
25654;DHT22;13511;48.622;9.230;2024-01-11T14:12:52;18.50;23.20
25654;DHT22;13511;48.622;9.230;2024-01-11T14:15:18;18.40;23.20
25654;DHT22;13511;48.622;9.230;2024-01-11T14:17:43;18.40;22.80
25654;DHT22;13511;48.622;9.230;2024-01-11T14:20:09;18.40;23.30
25654;DHT22;13511;48.622;9.230;2024-01-11T14:22:38;18.30;23.40
25654;DHT22;13511;48.622;9.230;2024-01-11T14:25:04;18.30;23.50
25654;DHT22;13511;48.622;9.230;2024-01-11T14:27:30;18.20;23.50
25654;DHT22;13511;48.622;9.230;2024-01-11T14:29:56;18.10;23.10
25654;DHT22;13511;48.622;9.230;2024-01-11T14:32:21;18.10;23.10
25654;DHT22;13511;48.622;9.230;2024-01-11T14:34:47;18.10;23.70
25654;DHT22;13511;48.622;9.230;2024-01-11T14:37:12;18.10;23.30
25654;DHT22;13511;48.622;9.230;2024-01-11T14:39:38;18.10;23.40
25654;DHT22;13511;48.622;9.230;2024-01-11T14:42:03;18.00;23.40
25654;DHT22;13511;48.622;9.230;2024-01-11T14:44:29;18.00;23.90
25654;DHT22;13511;48.622;9.230;2024-01-11T14:46:55;18.00;24.00
25654;DHT22;13511;48.622;9.230;2024-01-11T14:49:20;17.90;23.50
25654;DHT22;13511;48.622;9.230;2024-01-11T14:51:46;17.90;24.00
25654;DHT22;13511;48.622;9.230;2024-01-11T14:54:11;17.80;24.10
25654;DHT22;13511;48.622;9.230;2024-01-11T14:56:37;17.90;24.10
25654;DHT22;13511;48.622;9.230;2024-01-11T14:59:02;17.80;23.60
25654;DHT22;13511;48.622;9.230;2024-01-11T15:01:28;15.20;23.20
25654;DHT22;13511;48.622;9.230;2024-01-11T15:03:54;17.80;24.20
25654;DHT22;13511;48.622;9.230;2024-01-11T15:06:19;17.60;24.20
25654;DHT22;13511;48.622;9.230;2024-01-11T15:08:45;17.70;23.70
25654;DHT22;13511;48.622;9.230;2024-01-11T15:11:11;17.80;24.30
25654;DHT22;13511;48.622;9.230;2024-01-11T15:13:36;17.70;24.20
25654;DHT22;13511;48.622;9.230;2024-01-11T15:16:02;17.70;24.20
25654;DHT22;13511;48.622;9.230;2024-01-11T15:18:27;17.70;23.70
25654;DHT22;13511;48.622;9.230;2024-01-11T15:20:53;17.60;24.20
25654;DHT22;13511;48.622;9.230;2024-01-11T15:23:18;17.70;23.80
25654;DHT22;13511;48.622;9.230;2024-01-11T15:25:44;17.70;23.60
25654;DHT22;13511;48.622;9.230;2024-01-11T15:28:12;18.10;23.30
25654;DHT22;13511;48.622;9.230;2024-01-11T15:30:38;18.10;23.80
25654;DHT22;13511;48.622;9.230;2024-01-11T15:33:03;18.20;23.70
25654;DHT22;13511;48.622;9.230;2024-01-11T15:35:29;18.20;23.50
25654;DHT22;13511;48.622;9.230;2024-01-11T15:37:54;18.30;23.00
25654;DHT22;13511;48.622;9.230;2024-01-11T15:40:20;18.30;23.50
25654;DHT22;13511;48.622;9.230;2024-01-11T15:42:45;18.30;23.00
25654;DHT22;13511;48.622;9.230;2024-01-11T15:45:11;18.30;23.50
25654;DHT22;13511;48.622;9.230;2024-01-11T15:47:36;18.30;23.50
25654;DHT22;13511;48.622;9.230;2024-01-11T15:50:02;18.40;23.00
25654;DHT22;13511;48.622;9.230;2024-01-11T15:52:34;18.40;23.50
25654;DHT22;13511;48.622;9.230;2024-01-11T15:54:59;18.30;23.00
25654;DHT22;13511;48.622;9.230;2024-01-11T15:57:24;18.30;23.50